Strona główna
METAR-TAF:

METAR-TAF

Lotnisko :

Cleveland, Ohio, Stany Zjednoczone

Szerokość geograficzna: 41-34N, Długość geograficzna: 081-29W, wysokość: 268 m

Aktualna obserwacja pogody

Raport powstał 54 minut temu, godzina 18:20 UTC
Wiatr 7 kt od północny wschód
Temperatura -4°C
Wilgotność 74%
Ciśnienie 1032 hPa
Widzialność: 4.0 km
Przerywane chmury na wysokości 1900 ft
Zachmurzenie całkowite na wysokości 2500 ft
słaby śnieg

METAR: KCGF 201820Z 04007KT 2 1/2SM -SN BKN019 OVC025 M04/M08 A3048

czas: 14:14 (19:14 UTC)


TAF: brakujący

Obserwacja i prognoza pogody dla ponad 4000 lotnisk (raport METAR i TAF).

Dostępne stacje oznaczono żółtymi i czerwonymi punktami na mapie.

Najedź kursorem aby zobaczyć nazwę stacji.

Kliknij aby zobaczyć obserwacje i prognozy pogody.

Aby zmienić mapę: kliknij na zielony przycisk z czarnym krzyżykiem, aby powiększyć; na zielony przycisk z myślnikiem, aby pomniejszyć; na zielone strzałki, aby przejść do map sąsiednich.


METAR-TAF: